Time;durP1;ratioP1;P1;durP2;ratioP2;P2;SDS_P1;SDS_P2;PMS_P1;PMS_P2;Temp;Humidity;BMP_temperature;BMP_pressure;BME280_temperature;BME280_humidity;BME280_pressure;Samples;Min_cycle;Max_cycle;Signal;HPM_P1;HPM_P2
2021/11/14 00:02:09;;;;;;;1.83;1.13;;;18.60;99.90;;;;;;5090774;28;20036;-70
2021/11/14 00:04:35;;;;;;;2.22;1.50;;;18.60;99.90;;;;;;5091332;28;20072;-70
2021/11/14 00:07:01;;;;;;;2.75;1.60;;;18.60;99.90;;;;;;5090827;28;20106;-70
2021/11/14 00:09:28;;;;;;;2.13;1.38;;;18.60;99.90;;;;;;5091007;28;20414;-70
2021/11/14 00:11:55;;;;;;;3.72;1.40;;;18.60;99.90;;;;;;5090858;28;20528;-71
2021/11/14 00:14:21;;;;;;;1.90;1.23;;;18.60;99.90;;;;;;5091303;28;20032;-70
2021/11/14 00:16:47;;;;;;;2.25;1.30;;;18.60;99.90;;;;;;5091926;28;20110;-70
2021/11/14 00:19:13;;;;;;;1.98;1.30;;;18.60;99.90;;;;;;5094522;28;20024;-70
2021/11/14 00:21:42;;;;;;;1.92;1.38;;;18.60;99.90;;;;;;5094664;28;20365;-71
2021/11/14 00:24:11;;;;;;;2.78;1.30;;;18.60;99.90;;;;;;5094510;28;20061;-71
2021/11/14 00:26:36;;;;;;;2.67;1.50;;;18.60;99.90;;;;;;5093480;28;20027;-71
2021/11/14 00:29:03;;;;;;;1.92;1.05;;;18.60;99.90;;;;;;5094512;28;20492;-71
2021/11/14 00:31:29;;;;;;;2.38;1.33;;;18.70;99.90;;;;;;5094649;28;20535;-70
2021/11/14 00:33:55;;;;;;;2.13;1.38;;;18.70;99.90;;;;;;5094359;28;20100;-71
2021/11/14 00:36:23;;;;;;;3.63;1.30;;;18.60;99.90;;;;;;5094579;28;20031;-71
2021/11/14 00:38:51;;;;;;;2.92;1.45;;;18.70;99.90;;;;;;5093266;28;20031;-71
2021/11/14 00:41:18;;;;;;;1.38;1.08;;;18.70;99.90;;;;;;5094053;28;20514;-71
2021/11/14 00:43:43;;;;;;;2.50;1.50;;;18.70;99.90;;;;;;5094374;28;20032;-71
2021/11/14 00:46:10;;;;;;;1.67;1.23;;;18.70;99.90;;;;;;5094006;28;20150;-71
2021/11/14 00:48:41;;;;;;;1.33;1.00;;;18.70;99.90;;;;;;5094448;28;20051;-72
2021/11/14 00:51:08;;;;;;;1.70;1.15;;;18.70;99.90;;;;;;5092812;28;20024;-71
2021/11/14 00:53:33;;;;;;;1.73;1.30;;;18.80;99.90;;;;;;5094119;28;20039;-71
2021/11/14 00:55:59;;;;;;;1.50;1.10;;;18.80;99.90;;;;;;5094039;28;20024;-70
2021/11/14 00:58:25;;;;;;;1.70;1.20;;;18.80;99.90;;;;;;5093931;28;20032;-71
2021/11/14 01:00:52;;;;;;;2.05;1.23;;;18.80;99.90;;;;;;5094195;28;20056;-71
2021/11/14 01:03:18;;;;;;;2.20;1.08;;;18.80;99.90;;;;;;5094152;28;20059;-70
2021/11/14 01:05:44;;;;;;;1.75;1.27;;;18.80;99.90;;;;;;5093810;28;20453;-70
2021/11/14 01:08:11;;;;;;;4.25;1.60;;;18.80;99.90;;;;;;5093704;28;20027;-70
2021/11/14 01:10:45;;;;;;;2.13;1.13;;;18.90;99.90;;;;;;5093810;28;20478;-71
2021/11/14 01:13:11;;;;;;;;;;;18.80;99.90;;;;;;5094020;28;20024;-70
2021/11/14 01:15:38;;;;;;;1.80;1.08;;;18.90;99.90;;;;;;5093784;28;19949;-70
2021/11/14 01:18:03;;;;;;;1.38;1.00;;;18.90;99.90;;;;;;5093322;28;20024;-70
2021/11/14 01:20:34;;;;;;;3.38;0.95;;;18.90;99.90;;;;;;5092342;28;20377;-69
2021/11/14 01:23:02;;;;;;;1.70;0.90;;;18.90;99.90;;;;;;5093493;28;20111;-68
2021/11/14 01:25:28;;;;;;;2.30;1.38;;;18.90;99.90;;;;;;5093673;28;20024;-68
2021/11/14 01:27:54;;;;;;;1.65;1.05;;;18.90;99.90;;;;;;5093086;28;20031;-69
2021/11/14 01:30:24;;;;;;;2.53;1.10;;;18.90;99.90;;;;;;5093278;28;20023;-70
2021/11/14 01:32:50;;;;;;;1.95;1.10;;;18.90;99.90;;;;;;5093437;28;20020;-71
2021/11/14 01:35:17;;;;;;;3.35;1.33;;;19.00;99.90;;;;;;5091547;28;20097;-70
2021/11/14 01:37:46;;;;;;;2.25;1.08;;;18.90;99.90;;;;;;5093070;28;20028;-71
2021/11/14 01:40:15;;;;;;;1.25;1.13;;;19.00;99.90;;;;;;5092304;28;20150;-70
2021/11/14 01:42:41;;;;;;;2.00;1.10;;;18.90;99.90;;;;;;5090190;28;20589;-69
2021/11/14 01:45:08;;;;;;;3.13;1.08;;;19.00;99.90;;;;;;5092650;28;20438;-70
2021/11/14 01:47:34;;;;;;;1.75;0.90;;;19.00;99.90;;;;;;5093031;28;20028;-70
2021/11/14 01:50:00;;;;;;;4.20;1.30;;;19.00;99.90;;;;;;5091560;28;20035;-70
2021/11/14 01:52:29;;;;;;;1.40;1.00;;;19.00;99.90;;;;;;5093063;28;20024;-70
2021/11/14 01:54:54;;;;;;;2.50;1.00;;;19.00;99.90;;;;;;5092753;28;20106;-70
2021/11/14 01:57:21;;;;;;;1.55;1.00;;;19.00;99.90;;;;;;5093227;28;20109;-70
2021/11/14 01:59:48;;;;;;;2.15;0.90;;;19.00;99.90;;;;;;5092810;28;20032;-70
2021/11/14 02:02:14;;;;;;;1.92;1.10;;;19.00;99.90;;;;;;5092581;28;20047;-70
2021/11/14 02:04:41;;;;;;;3.70;0.85;;;19.00;99.90;;;;;;5092975;28;20043;-70
2021/11/14 02:07:09;;;;;;;1.52;1.10;;;19.00;99.90;;;;;;5092722;28;20028;-70
2021/11/14 02:09:34;;;;;;;1.60;0.93;;;19.00;99.90;;;;;;5092786;28;20024;-69
2021/11/14 02:12:02;;;;;;;1.52;0.90;;;19.00;99.90;;;;;;5092324;28;20085;-70
2021/11/14 02:14:27;;;;;;;1.60;0.90;;;19.00;99.90;;;;;;5092703;28;20048;-70
2021/11/14 02:16:53;;;;;;;1.70;1.17;;;19.00;99.90;;;;;;5092195;28;20082;-70
2021/11/14 02:19:19;;;;;;;1.67;0.98;;;19.00;99.90;;;;;;5092824;28;20097;-70
2021/11/14 02:21:45;;;;;;;1.85;1.00;;;19.00;99.90;;;;;;5092297;28;20455;-70
2021/11/14 02:24:11;;;;;;;2.58;0.93;;;19.00;99.90;;;;;;5092153;28;20043;-71
2021/11/14 02:26:36;;;;;;;1.40;1.00;;;19.00;99.90;;;;;;5092694;28;20031;-71
2021/11/14 02:29:03;;;;;;;1.20;0.90;;;19.00;99.90;;;;;;5092099;28;20026;-71
2021/11/14 02:31:29;;;;;;;3.03;1.10;;;19.00;99.90;;;;;;5092383;28;20036;-71
2021/11/14 02:33:57;;;;;;;1.20;0.95;;;19.00;99.90;;;;;;5092023;28;20524;-71
2021/11/14 02:36:24;;;;;;;1.40;0.88;;;19.00;99.90;;;;;;5092334;28;20081;-71
2021/11/14 02:38:50;;;;;;;2.85;1.00;;;19.00;99.90;;;;;;5092515;28;20110;-70
2021/11/14 02:41:16;;;;;;;4.47;1.00;;;19.00;99.90;;;;;;5091085;28;20040;-71
2021/11/14 02:43:44;;;;;;;4.30;1.00;;;18.90;99.90;;;;;;5092034;28;20380;-71
2021/11/14 02:46:11;;;;;;;1.67;1.05;;;19.00;99.90;;;;;;5091971;28;20042;-71
2021/11/14 02:48:37;;;;;;;2.15;1.02;;;18.90;99.90;;;;;;5092032;28;20028;-71
2021/11/14 02:51:07;;;;;;;1.50;0.88;;;19.00;99.90;;;;;;5091850;28;20028;-71
2021/11/14 02:53:33;;;;;;;2.00;1.33;;;18.90;99.90;;;;;;5092039;28;20026;-71
2021/11/14 02:55:59;;;;;;;2.08;0.90;;;18.90;99.90;;;;;;5091690;28;20027;-70
2021/11/14 02:58:27;;;;;;;2.20;1.10;;;18.90;99.90;;;;;;5091831;28;20077;-70
2021/11/14 03:01:00;;;;;;;1.70;0.90;;;18.90;99.90;;;;;;5091482;28;20422;-70
2021/11/14 03:03:26;;;;;;;2.40;1.10;;;18.90;99.90;;;;;;5091874;28;20357;-70
2021/11/14 03:05:52;;;;;;;1.73;1.02;;;18.90;99.90;;;;;;5092136;28;20043;-70
2021/11/14 03:08:18;;;;;;;2.50;1.05;;;18.80;99.90;;;;;;5092000;28;20024;-70
2021/11/14 03:10:44;;;;;;;2.70;1.33;;;18.80;99.90;;;;;;5092056;28;20438;-70
2021/11/14 03:13:14;;;;;;;1.40;1.10;;;18.80;99.90;;;;;;5091480;28;20024;-70
2021/11/14 03:15:45;;;;;;;1.85;1.13;;;18.90;99.90;;;;;;5091702;28;20420;-70
2021/11/14 03:18:13;;;;;;;2.30;1.15;;;18.80;99.90;;;;;;5091455;28;20020;-70
2021/11/14 03:20:41;;;;;;;2.25;1.10;;;18.80;99.90;;;;;;5091587;28;20040;-70
2021/11/14 03:23:07;;;;;;;1.15;1.05;;;18.80;99.90;;;;;;5091332;28;20020;-70
2021/11/14 03:25:34;;;;;;;1.80;1.20;;;18.80;99.90;;;;;;5091603;28;20036;-70
2021/11/14 03:28:00;;;;;;;1.65;1.05;;;18.80;99.90;;;;;;5091339;28;20378;-70
2021/11/14 03:30:29;;;;;;;2.47;1.02;;;18.80;99.90;;;;;;5091624;28;20044;-70
2021/11/14 03:32:55;;;;;;;2.25;1.20;;;18.80;99.90;;;;;;5091342;28;20078;-70
2021/11/14 03:35:22;;;;;;;2.63;1.25;;;18.80;99.90;;;;;;5091732;28;20043;-70
2021/11/14 03:37:48;;;;;;;1.70;1.17;;;18.80;99.90;;;;;;5091806;28;20020;-70
2021/11/14 03:40:16;;;;;;;1.95;1.10;;;18.80;99.90;;;;;;5091192;28;20028;-70
2021/11/14 03:42:43;;;;;;;2.55;1.10;;;18.80;99.90;;;;;;5091441;28;20028;-70
2021/11/14 03:45:09;;;;;;;1.50;1.10;;;18.80;99.90;;;;;;5089893;28;20056;-70
2021/11/14 03:47:37;;;;;;;1.60;1.27;;;18.70;99.90;;;;;;5091475;28;20024;-70
2021/11/14 03:50:04;;;;;;;1.40;0.98;;;18.80;99.90;;;;;;5091005;28;20024;-70
2021/11/14 03:52:29;;;;;;;2.22;1.20;;;18.70;99.90;;;;;;5093540;28;20066;-72
2021/11/14 03:54:55;;;;;;;1.75;1.15;;;18.70;99.90;;;;;;5095144;28;20432;-71
2021/11/14 03:57:21;;;;;;;1.55;1.05;;;18.70;99.90;;;;;;5095550;28;20020;-70
2021/11/14 03:59:46;;;;;;;1.20;1.10;;;18.70;99.90;;;;;;5095203;28;20074;-70
2021/11/14 04:02:12;;;;;;;2.10;1.23;;;18.70;99.90;;;;;;5094661;28;20170;-70
2021/11/14 04:04:38;;;;;;;3.03;1.33;;;18.70;99.90;;;;;;5095047;28;20384;-70
2021/11/14 04:07:03;;;;;;;1.25;1.10;;;18.70;99.90;;;;;;5094932;28;20024;-70
2021/11/14 04:09:29;;;;;;;1.60;1.20;;;18.70;99.90;;;;;;5095197;28;20028;-70
2021/11/14 04:11:55;;;;;;;2.15;1.42;;;18.70;99.90;;;;;;5094818;28;20495;-70
2021/11/14 04:14:20;;;;;;;1.98;1.00;;;18.60;99.90;;;;;;5094028;28;20028;-70
2021/11/14 04:16:46;;;;;;;1.63;1.20;;;18.70;99.90;;;;;;5095304;28;20027;-70
2021/11/14 04:19:12;;;;;;;1.70;1.27;;;18.70;99.90;;;;;;5094472;28;20024;-70
2021/11/14 04:21:38;;;;;;;1.95;1.00;;;18.70;99.90;;;;;;5094751;28;20032;-70
2021/11/14 04:24:05;;;;;;;1.55;1.20;;;18.60;99.90;;;;;;5094665;28;20059;-70
2021/11/14 04:26:31;;;;;;;1.85;1.17;;;18.60;99.90;;;;;;5111603;28;20042;-71
2021/11/14 04:28:56;;;;;;;2.65;1.17;;;18.60;99.90;;;;;;5115013;28;20020;-70
2021/11/14 04:31:22;;;;;;;1.65;1.30;;;18.60;99.90;;;;;;5115104;28;20118;-71
2021/11/14 04:33:48;;;;;;;1.75;1.00;;;18.60;99.90;;;;;;5114940;28;20031;-71
2021/11/14 04:36:14;;;;;;;2.47;1.33;;;18.60;99.90;;;;;;5114899;28;20035;-71
2021/11/14 04:38:40;;;;;;;1.27;1.10;;;18.60;99.90;;;;;;5102879;28;20020;-71
2021/11/14 04:41:05;;;;;;;1.50;1.10;;;18.60;99.90;;;;;;5093125;28;20028;-71
2021/11/14 04:43:31;;;;;;;3.15;1.27;;;18.60;99.90;;;;;;5094175;28;20028;-71
2021/11/14 04:45:57;;;;;;;2.90;1.48;;;18.60;99.90;;;;;;5094317;28;20051;-71
2021/11/14 04:48:23;;;;;;;1.52;1.25;;;18.60;99.90;;;;;;5094281;28;20505;-71
2021/11/14 04:50:49;;;;;;;2.17;1.30;;;18.60;99.90;;;;;;5094597;28;20032;-70
2021/11/14 04:53:15;;;;;;;1.40;1.20;;;18.50;99.90;;;;;;5094446;28;20368;-70
2021/11/14 04:55:42;;;;;;;1.58;1.10;;;18.60;99.90;;;;;;5093888;28;20032;-70
2021/11/14 04:58:08;;;;;;;1.40;0.93;;;18.50;99.90;;;;;;5094069;28;20039;-70
2021/11/14 05:00:42;;;;;;;1.42;1.17;;;18.50;99.90;;;;;;5093928;28;20119;-70
2021/11/14 05:03:09;;;;;;;2.42;1.15;;;18.50;99.90;;;;;;5093166;28;20098;-70
2021/11/14 05:05:36;;;;;;;2.17;1.02;;;18.50;99.90;;;;;;5093782;28;20028;-70
2021/11/14 05:08:04;;;;;;;1.88;1.35;;;18.50;99.90;;;;;;5093960;28;20023;-70
2021/11/14 05:10:30;;;;;;;1.40;1.00;;;18.50;99.90;;;;;;5093728;28;20039;-70
2021/11/14 05:12:55;;;;;;;1.73;1.30;;;18.50;99.90;;;;;;5094014;28;20020;-70
2021/11/14 05:15:21;;;;;;;1.48;1.20;;;18.50;99.90;;;;;;5093785;28;20031;-70
2021/11/14 05:17:47;;;;;;;1.63;1.30;;;18.50;99.90;;;;;;5093660;28;20464;-70
2021/11/14 05:20:12;;;;;;;2.28;1.42;;;18.50;99.90;;;;;;5093560;28;20028;-70
2021/11/14 05:22:38;;;;;;;1.25;1.10;;;18.50;99.90;;;;;;5093695;28;20032;-70
2021/11/14 05:25:06;;;;;;;1.65;1.30;;;18.50;99.90;;;;;;5093608;28;20016;-70
2021/11/14 05:27:31;;;;;;;1.85;1.30;;;18.40;99.90;;;;;;5092057;28;20169;-70
2021/11/14 05:29:57;;;;;;;1.42;1.20;;;18.50;99.90;;;;;;5093444;28;20091;-70
2021/11/14 05:32:23;;;;;;;1.75;1.27;;;18.50;99.90;;;;;;5093489;28;20456;-70
2021/11/14 05:34:49;;;;;;;2.85;1.40;;;18.40;99.90;;;;;;5093419;28;20423;-70
2021/11/14 05:37:15;;;;;;;1.85;1.42;;;18.40;99.90;;;;;;5093513;28;20154;-70
2021/11/14 05:39:40;;;;;;;1.40;1.00;;;18.40;99.90;;;;;;5093147;28;20037;-70
2021/11/14 05:42:06;;;;;;;2.13;1.42;;;18.40;99.90;;;;;;5093202;28;20032;-70
2021/11/14 05:44:32;;;;;;;1.73;1.27;;;18.40;99.90;;;;;;5092942;28;20024;-70
2021/11/14 05:46:58;;;;;;;2.95;0.90;;;18.40;99.90;;;;;;5093174;28;20032;-70
2021/11/14 05:49:23;;;;;;;2.17;1.30;;;18.40;99.90;;;;;;5093109;28;20020;-70
2021/11/14 05:51:49;;;;;;;2.15;1.38;;;18.40;99.90;;;;;;5093267;28;20031;-71
2021/11/14 05:54:15;;;;;;;1.60;1.20;;;18.40;99.90;;;;;;5093096;28;20059;-71
2021/11/14 05:56:41;;;;;;;2.50;1.30;;;18.40;99.90;;;;;;5092800;28;20020;-70
2021/11/14 05:59:19;;;;;;;2.00;1.20;;;18.40;99.90;;;;;;5092763;28;20032;-70
2021/11/14 06:01:49;;;;;;;1.85;1.30;;;18.40;99.90;;;;;;5092767;28;20495;-70
2021/11/14 06:04:34;;;;;;;1.52;1.17;;;18.40;99.90;;;;;;5092829;28;20452;-71
2021/11/14 06:07:00;;;;;;;1.20;1.10;;;18.40;99.90;;;;;;5093065;28;20062;-70
2021/11/14 06:09:26;;;;;;;1.50;1.00;;;18.40;99.90;;;;;;5092602;28;20051;-70
2021/11/14 06:11:53;;;;;;;1.52;1.17;;;18.40;99.90;;;;;;5093031;28;20028;-70
2021/11/14 06:14:19;;;;;;;1.10;1.00;;;18.40;99.90;;;;;;5092184;28;20020;-70
2021/11/14 06:16:44;;;;;;;1.60;1.00;;;18.30;99.90;;;;;;5092651;28;20039;-70
2021/11/14 06:19:10;;;;;;;2.05;1.40;;;18.30;99.90;;;;;;5092608;28;20032;-70
2021/11/14 06:21:36;;;;;;;1.45;1.20;;;18.30;99.90;;;;;;5092243;28;20480;-70
2021/11/14 06:24:01;;;;;;;2.53;1.52;;;18.30;99.90;;;;;;5092525;28;20020;-70
2021/11/14 06:26:27;;;;;;;2.20;1.40;;;18.30;99.90;;;;;;5092177;28;20097;-71
2021/11/14 06:28:53;;;;;;;2.28;1.17;;;18.30;99.90;;;;;;5092704;28;20024;-70
2021/11/14 06:31:19;;;;;;;2.03;1.58;;;18.30;99.90;;;;;;5092299;28;20024;-71
2021/11/14 06:33:45;;;;;;;1.70;1.10;;;18.30;99.90;;;;;;5092283;28;20095;-70
2021/11/14 06:36:10;;;;;;;2.72;1.38;;;18.30;99.90;;;;;;5091940;28;20116;-71
2021/11/14 06:38:36;;;;;;;1.85;1.35;;;18.30;99.90;;;;;;5091814;28;20106;-70
2021/11/14 06:41:02;;;;;;;3.67;1.30;;;18.30;99.90;;;;;;5091967;28;20024;-71
2021/11/14 06:43:28;;;;;;;2.50;1.65;;;18.30;99.90;;;;;;5091820;28;20455;-70
2021/11/14 06:45:54;;;;;;;2.42;1.50;;;18.30;99.90;;;;;;5092163;28;20391;-71
2021/11/14 06:48:20;;;;;;;2.72;1.42;;;18.30;99.90;;;;;;5091823;28;20028;-70
2021/11/14 06:50:46;;;;;;;2.53;1.40;;;18.30;99.90;;;;;;5092054;28;20024;-71
2021/11/14 06:53:11;;;;;;;2.38;1.77;;;18.30;99.90;;;;;;5091786;28;20020;-69
2021/11/14 06:55:37;;;;;;;2.72;1.65;;;18.30;99.90;;;;;;5090915;28;20396;-69
2021/11/14 06:58:03;;;;;;;4.35;1.65;;;18.30;99.90;;;;;;5091656;28;20115;-69
2021/11/14 07:00:32;;;;;;;1.60;1.35;;;18.30;99.90;;;;;;5090174;28;20055;-70
2021/11/14 07:02:58;;;;;;;4.43;1.73;;;18.30;99.90;;;;;;5092013;28;20468;-69
2021/11/14 07:05:23;;;;;;;3.38;1.60;;;18.30;99.90;;;;;;5091578;28;20062;-74
2021/11/14 07:07:49;;;;;;;2.80;1.35;;;18.30;99.90;;;;;;5090472;28;20448;-71
2021/11/14 07:10:16;;;;;;;3.63;1.70;;;18.30;99.90;;;;;;5091708;28;20024;-70
2021/11/14 07:12:43;;;;;;;8.23;1.90;;;18.30;99.90;;;;;;5091617;28;20027;-72
2021/11/14 07:15:12;;;;;;;4.82;1.95;;;18.30;99.90;;;;;;5091639;28;20487;-75
2021/11/14 07:17:38;;;;;;;3.58;1.75;;;18.20;99.90;;;;;;5091502;28;20020;-75
2021/11/14 07:20:09;;;;;;;3.13;1.60;;;18.20;99.90;;;;;;5091703;28;20024;-75
2021/11/14 07:22:35;;;;;;;6.65;1.92;;;18.20;99.90;;;;;;5091426;28;20475;-75
2021/11/14 07:25:01;;;;;;;2.40;1.52;;;18.20;99.90;;;;;;5091382;28;20119;-74
2021/11/14 07:27:27;;;;;;;2.67;1.77;;;18.20;99.90;;;;;;5090913;28;20035;-70
2021/11/14 07:29:53;;;;;;;3.15;1.75;;;18.20;99.90;;;;;;5091466;28;20054;-71
2021/11/14 07:32:19;;;;;;;3.42;1.42;;;18.20;99.90;;;;;;5091527;28;20031;-74
2021/11/14 07:34:45;;;;;;;5.47;2.03;;;18.20;99.90;;;;;;5091523;28;20022;-74
2021/11/14 07:37:11;;;;;;;2.28;1.48;;;18.20;99.90;;;;;;5091488;28;20039;-71
2021/11/14 07:39:37;;;;;;;7.50;1.75;;;18.10;99.90;;;;;;5091063;28;20384;-74
2021/11/14 07:42:03;;;;;;;4.13;1.65;;;18.20;99.90;;;;;;5091353;28;20028;-74
2021/11/14 07:44:29;;;;;;;2.13;1.67;;;18.10;99.90;;;;;;5091727;28;20043;-74
2021/11/14 07:46:54;;;;;;;2.47;1.55;;;18.10;99.90;;;;;;5091519;28;20023;-73
2021/11/14 07:49:20;;;;;;;3.80;1.80;;;18.20;99.90;;;;;;5091342;28;20024;-75
2021/11/14 07:51:46;;;;;;;2.03;1.42;;;18.10;99.90;;;;;;5093089;28;20028;-75
2021/11/14 07:54:11;;;;;;;3.67;1.40;;;18.20;99.90;;;;;;5091410;28;20065;-75
2021/11/14 07:56:37;;;;;;;3.67;1.55;;;18.10;99.90;;;;;;5091357;28;20020;-76
2021/11/14 07:59:03;;;;;;;1.92;1.30;;;18.10;99.90;;;;;;5091286;28;20024;-75
2021/11/14 08:01:29;;;;;;;2.45;1.60;;;18.10;99.90;;;;;;5091236;28;20029;-75
2021/11/14 08:03:55;;;;;;;4.20;1.42;;;18.10;99.90;;;;;;5091322;28;20051;-74
2021/11/14 08:06:21;;;;;;;2.30;1.48;;;18.10;99.90;;;;;;5091096;28;20119;-74
2021/11/14 08:08:47;;;;;;;2.40;1.42;;;18.10;99.90;;;;;;5091281;28;20062;-75
2021/11/14 08:11:12;;;;;;;3.22;1.73;;;18.10;99.90;;;;;;5091214;28;20088;-75
2021/11/14 08:13:38;;;;;;;2.70;1.70;;;18.10;99.90;;;;;;5091000;28;20860;-74
2021/11/14 08:16:05;;;;;;;4.25;1.45;;;18.10;99.90;;;;;;5091160;28;20456;-75
2021/11/14 08:18:31;;;;;;;3.20;1.60;;;18.10;99.90;;;;;;5091038;28;20028;-75
2021/11/14 08:20:57;;;;;;;1.90;1.50;;;18.10;99.90;;;;;;5091444;28;20035;-74
2021/11/14 08:23:23;;;;;;;2.10;1.60;;;18.10;99.90;;;;;;5090800;28;20032;-73
2021/11/14 08:25:50;;;;;;;3.45;1.52;;;18.10;99.90;;;;;;5090972;28;20035;-71
2021/11/14 08:28:15;;;;;;;1.90;1.40;;;18.10;99.90;;;;;;5090686;28;20032;-73
2021/11/14 08:30:42;;;;;;;3.78;1.50;;;18.10;99.90;;;;;;5081731;28;20374;-72
2021/11/14 08:33:09;;;;;;;3.45;1.63;;;18.10;99.90;;;;;;5070762;28;20074;-71
2021/11/14 08:35:35;;;;;;;2.15;1.50;;;18.10;99.90;;;;;;5070078;28;20043;-71
2021/11/14 08:38:02;;;;;;;2.05;1.38;;;18.10;99.90;;;;;;5077116;28;20016;-72
2021/11/14 08:40:32;;;;;;;6.05;3.10;;;18.10;99.90;;;;;;5094391;28;20023;-73
2021/11/14 08:42:59;;;;;;;5.45;2.90;;;18.10;99.90;;;;;;5094730;28;20028;-74
2021/11/14 08:45:26;;;;;;;7.15;4.68;;;18.10;99.90;;;;;;5094116;28;20021;-74
2021/11/14 08:47:52;;;;;;;10.15;6.93;;;18.10;99.90;;;;;;5094400;28;20111;-74
2021/11/14 08:50:18;;;;;;;11.68;6.47;;;18.00;99.90;;;;;;5094316;28;20105;-74
2021/11/14 08:52:45;;;;;;;9.57;6.28;;;18.00;99.90;;;;;;5094316;28;20070;-72
2021/11/14 08:55:18;;;;;;;8.07;5.38;;;18.00;99.90;;;;;;5092923;28;20040;-74
2021/11/14 08:57:45;;;;;;;7.35;5.05;;;18.00;99.90;;;;;;5092666;28;20429;-72
2021/11/14 09:00:13;;;;;;;7.53;4.88;;;18.10;99.90;;;;;;5093283;28;20031;-75
2021/11/14 09:02:39;;;;;;;8.35;5.03;;;18.10;99.90;;;;;;5093770;28;20213;-78
2021/11/14 09:05:06;;;;;;;8.23;4.82;;;18.10;99.90;;;;;;5093784;28;20103;-75
2021/11/14 09:07:32;;;;;;;6.88;4.90;;;18.00;99.90;;;;;;5094129;28;20121;-75
2021/11/14 09:09:58;;;;;;;6.60;4.70;;;18.10;99.90;;;;;;5093956;28;20480;-74
2021/11/14 09:12:23;;;;;;;6.25;4.53;;;18.00;99.90;;;;;;5093136;28;20027;-74
2021/11/14 09:14:49;;;;;;;6.07;4.25;;;18.10;99.90;;;;;;5093649;28;20035;-74
2021/11/14 09:17:16;;;;;;;6.03;4.07;;;18.10;99.90;;;;;;5088887;28;20055;-74
2021/11/14 09:19:42;;;;;;;6.43;4.35;;;18.10;99.90;;;;;;5076107;28;20059;-74
2021/11/14 09:22:08;;;;;;;6.20;4.30;;;18.10;99.90;;;;;;5073356;28;20036;-73
2021/11/14 09:24:34;;;;;;;5.28;3.83;;;18.10;99.90;;;;;;5076107;28;20032;-73
2021/11/14 09:27:00;;;;;;;6.20;3.50;;;18.10;99.90;;;;;;5093588;28;20093;-75
2021/11/14 09:29:25;;;;;;;6.05;3.88;;;18.20;99.90;;;;;;5093297;28;20012;-75
2021/11/14 09:31:51;;;;;;;5.25;3.50;;;18.20;99.90;;;;;;5093146;28;20062;-73
2021/11/14 09:34:17;;;;;;;8.13;3.70;;;18.20;99.90;;;;;;5092261;28;20060;-72
2021/11/14 09:36:44;;;;;;;5.18;3.10;;;18.20;99.90;;;;;;5091772;28;20088;-73
2021/11/14 09:39:11;;;;;;;5.35;3.13;;;18.20;99.90;;;;;;5091908;28;20376;-72
2021/11/14 09:41:44;;;;;;;4.43;3.08;;;18.30;99.90;;;;;;5091379;28;20551;-74
2021/11/14 09:44:13;;;;;;;5.63;3.22;;;18.30;99.90;;;;;;5091878;28;20016;-72
2021/11/14 09:46:45;;;;;;;4.20;2.90;;;18.30;99.90;;;;;;5082816;28;20024;-75
2021/11/14 09:49:11;;;;;;;5.40;2.60;;;18.30;99.90;;;;;;5092707;28;20020;-75
2021/11/14 09:51:36;;;;;;;4.28;2.88;;;18.30;99.90;;;;;;5092894;28;20032;-75
2021/11/14 09:54:03;;;;;;;6.05;3.40;;;18.30;99.90;;;;;;5093398;28;20020;-75
2021/11/14 09:56:28;;;;;;;5.40;3.00;;;18.40;99.90;;;;;;5092288;28;20476;-75
2021/11/14 09:58:54;;;;;;;3.72;2.67;;;18.40;99.90;;;;;;5091518;28;20093;-76
2021/11/14 10:01:20;;;;;;;5.43;2.92;;;18.40;99.90;;;;;;5091092;28;20031;-75
2021/11/14 10:03:45;;;;;;;4.55;2.90;;;18.40;99.90;;;;;;5092276;28;20369;-75
2021/11/14 10:06:11;;;;;;;4.40;2.90;;;18.40;99.90;;;;;;5092772;28;20031;-75
2021/11/14 10:08:42;;;;;;;4.88;2.72;;;18.40;99.90;;;;;;5091224;28;20028;-75
2021/11/14 10:11:08;;;;;;;3.75;2.55;;;18.40;99.90;;;;;;5092963;28;20345;-75
2021/11/14 10:13:36;;;;;;;6.63;3.30;;;18.50;99.90;;;;;;5092361;28;20020;-75
2021/11/14 10:16:12;;;;;;;5.18;3.20;;;18.50;99.90;;;;;;5092872;28;20453;-74
2021/11/14 10:18:40;;;;;;;4.60;3.30;;;18.50;99.90;;;;;;5092107;28;20036;-75
2021/11/14 10:21:07;;;;;;;6.32;2.80;;;18.50;99.90;;;;;;5092359;28;20039;-74
2021/11/14 10:23:34;;;;;;;5.15;3.10;;;18.50;99.90;;;;;;5092265;28;20032;-75
2021/11/14 10:26:10;;;;;;;5.05;3.22;;;18.50;99.90;;;;;;5092678;28;20377;-75
2021/11/14 10:28:43;;;;;;;4.95;3.42;;;18.50;99.90;;;;;;5092482;28;20022;-74
2021/11/14 10:31:10;;;;;;;5.90;3.10;;;18.60;99.90;;;;;;5092563;28;20040;-75
2021/11/14 10:33:38;;;;;;;5.05;3.28;;;18.60;99.90;;;;;;5092198;28;20059;-74
2021/11/14 10:36:04;;;;;;;5.55;3.47;;;18.60;99.90;;;;;;5092347;28;20035;-74
2021/11/14 10:38:35;;;;;;;5.07;3.65;;;18.60;99.90;;;;;;5091871;28;20060;-75
2021/11/14 10:41:05;;;;;;;5.78;4.00;;;18.60;99.90;;;;;;5092681;28;20040;-75
2021/11/14 10:43:31;;;;;;;6.18;4.28;;;18.60;99.90;;;;;;5091686;28;20082;-75
2021/11/14 10:45:58;;;;;;;6.38;4.40;;;18.60;99.90;;;;;;5092112;28;20029;-75
2021/11/14 10:48:27;;;;;;;5.63;4.10;;;18.70;99.90;;;;;;5091856;28;20491;-75
2021/11/14 10:50:59;;;;;;;6.07;4.47;;;18.70;99.90;;;;;;5092035;28;20035;-75
2021/11/14 10:53:27;;;;;;;6.43;4.40;;;18.70;99.90;;;;;;5090626;28;20380;-74
2021/11/14 10:55:56;;;;;;;6.43;5.03;;;18.70;99.90;;;;;;5092058;28;20027;-75
2021/11/14 10:58:25;;;;;;;7.10;4.97;;;18.70;99.90;;;;;;5091255;28;20024;-74
2021/11/14 11:00:55;;;;;;;7.95;5.10;;;18.70;99.90;;;;;;5091344;28;20125;-74
2021/11/14 11:03:22;;;;;;;6.68;4.60;;;18.70;99.90;;;;;;5091276;28;20028;-71
2021/11/14 11:05:48;;;;;;;7.05;5.07;;;18.70;99.90;;;;;;5091898;28;20024;-75
2021/11/14 11:08:22;;;;;;;8.27;4.68;;;18.70;99.90;;;;;;5091943;28;20042;-75
2021/11/14 11:10:52;;;;;;;7.35;4.75;;;18.70;99.90;;;;;;5091577;28;20031;-75
2021/11/14 11:13:57;;;;;;;5.55;4.40;;;18.70;99.90;;;;;;5093153;28;20498;-75
2021/11/14 11:16:29;;;;;;;6.55;4.95;;;18.80;99.90;;;;;;5084786;28;20442;-75
2021/11/14 11:19:02;;;;;;;7.88;5.30;;;18.80;99.90;;;;;;5078856;28;20020;-75
2021/11/14 11:21:48;;;;;;;6.50;4.43;;;18.80;99.90;;;;;;5081564;28;20119;-75
2021/11/14 11:24:22;;;;;;;6.10;4.93;;;18.80;99.90;;;;;;5081760;28;20028;-73
2021/11/14 11:27:03;;;;;;;6.63;4.68;;;18.80;99.90;;;;;;5091259;28;20032;-73
2021/11/14 11:29:31;;;;;;;6.65;4.93;;;18.80;99.90;;;;;;5075490;28;20391;-73
2021/11/14 11:31:57;;;;;;;6.45;4.85;;;18.80;99.90;;;;;;5091141;28;20032;-74
2021/11/14 11:34:24;;;;;;;7.35;5.30;;;18.80;99.90;;;;;;5082986;28;20022;-74
2021/11/14 11:36:51;;;;;;;6.25;5.05;;;18.80;99.90;;;;;;5075072;28;20595;-75
2021/11/14 11:39:17;;;;;;;7.32;5.38;;;18.80;99.90;;;;;;5090366;28;20048;-75
2021/11/14 11:41:45;;;;;;;6.65;5.10;;;18.80;99.90;;;;;;5090702;28;20039;-74
2021/11/14 11:44:11;;;;;;;7.15;5.43;;;18.80;99.90;;;;;;5090890;28;20034;-77
2021/11/14 11:46:39;;;;;;;7.07;5.30;;;18.80;99.90;;;;;;5076843;28;20032;-76
2021/11/14 11:49:09;;;;;;;6.18;5.30;;;18.80;99.90;;;;;;5087600;28;20027;-76
2021/11/14 11:51:44;;;;;;;10.82;5.43;;;18.80;99.90;;;;;;5081094;28;20115;-75
2021/11/14 11:54:14;;;;;;;8.95;5.72;;;18.80;99.90;;;;;;5090863;28;20123;-76
2021/11/14 11:56:41;;;;;;;8.00;6.22;;;18.80;99.90;;;;;;5078178;28;20025;-75
2021/11/14 11:59:18;;;;;;;7.38;5.95;;;18.80;99.90;;;;;;5089264;28;20537;-77
2021/11/14 12:02:08;;;;;;;6.70;5.60;;;18.80;99.90;;;;;;5077212;28;20039;-76
2021/11/14 12:04:40;;;;;;;7.03;5.55;;;18.80;99.90;;;;;;5076702;28;20055;-76
2021/11/14 12:07:15;;;;;;;6.75;5.15;;;18.80;99.90;;;;;;5088506;28;20035;-77
2021/11/14 12:09:53;;;;;;;6.88;5.47;;;18.80;99.90;;;;;;5090462;28;20073;-76
2021/11/14 12:12:38;;;;;;;6.65;5.75;;;18.80;99.90;;;;;;5079004;28;20128;-74
2021/11/14 12:15:16;;;;;;;7.90;6.07;;;18.80;99.90;;;;;;5092539;28;20028;-76
2021/11/14 12:17:50;;;;;;;7.45;5.55;;;18.80;99.90;;;;;;5087901;28;20032;-77
2021/11/14 12:20:19;;;;;;;6.88;5.72;;;18.80;99.90;;;;;;5085427;28;20020;-76
2021/11/14 12:22:51;;;;;;;7.93;5.40;;;18.80;99.90;;;;;;5078929;28;20040;-76
2021/11/14 12:25:38;;;;;;;6.70;5.72;;;18.80;99.90;;;;;;5090731;28;20031;-76
2021/11/14 12:28:16;;;;;;;7.32;5.93;;;18.80;99.90;;;;;;5083656;28;20050;-74
2021/11/14 12:31:00;;;;;;;8.40;6.15;;;18.80;99.90;;;;;;5079197;28;20427;-71
2021/11/14 12:33:28;;;;;;;9.50;6.45;;;18.80;99.90;;;;;;5078333;28;20016;-72
2021/11/14 12:36:03;;;;;;;10.85;6.40;;;18.80;99.90;;;;;;5094533;28;20025;-72
2021/11/14 12:38:31;;;;;;;8.07;6.18;;;18.80;99.90;;;;;;5080721;28;20527;-73
2021/11/14 12:41:11;;;;;;;8.88;6.88;;;18.80;99.90;;;;;;5090590;28;20040;-71
2021/11/14 12:43:46;;;;;;;7.65;6.32;;;18.80;99.90;;;;;;5079486;28;20484;-71
2021/11/14 12:46:18;;;;;;;8.43;6.78;;;18.80;99.90;;;;;;5092751;28;20025;-71
2021/11/14 12:48:46;;;;;;;7.63;6.32;;;18.80;99.90;;;;;;5093579;28;20484;-72
2021/11/14 12:51:19;;;;;;;8.90;7.00;;;18.80;99.90;;;;;;5077030;28;20543;-71